sensor_id;sensor_type;location;lat;lon;timestamp;P1;durP1;ratioP1;P2;durP2;ratioP2
25980;SDS011;13772;52.996;9.124;2024-01-30T09:13:02;12.63;;;8.70;;
25980;SDS011;13772;52.996;9.124;2024-01-30T09:15:28;11.32;;;9.27;;
25980;SDS011;13772;52.996;9.124;2024-01-30T09:17:53;13.95;;;9.52;;
25980;SDS011;13772;52.996;9.124;2024-01-30T09:20:18;14.20;;;9.45;;
25980;SDS011;13772;52.996;9.124;2024-01-30T09:22:45;12.15;;;9.30;;
25980;SDS011;13772;52.996;9.124;2024-01-30T09:25:10;15.20;;;9.77;;
25980;SDS011;13772;52.996;9.124;2024-01-30T09:27:35;13.27;;;9.85;;
25980;SDS011;13772;52.996;9.124;2024-01-30T09:30:01;12.98;;;9.85;;
25980;SDS011;13772;52.996;9.124;2024-01-30T09:32:26;13.50;;;9.82;;
25980;SDS011;13772;52.996;9.124;2024-01-30T09:34:51;15.82;;;11.48;;
25980;SDS011;13772;52.996;9.124;2024-01-30T09:37:16;14.05;;;10.60;;
25980;SDS011;13772;52.996;9.124;2024-01-30T09:39:43;16.50;;;11.73;;
25980;SDS011;13772;52.996;9.124;2024-01-30T09:42:28;14.80;;;10.52;;
25980;SDS011;13772;52.996;9.124;2024-01-30T09:44:58;15.80;;;10.48;;
25980;SDS011;13772;52.996;9.124;2024-01-30T09:47:23;16.52;;;11.38;;
25980;SDS011;13772;52.996;9.124;2024-01-30T09:49:48;14.73;;;10.52;;
25980;SDS011;13772;52.996;9.124;2024-01-30T09:52:14;14.85;;;10.52;;
25980;SDS011;13772;52.996;9.124;2024-01-30T09:54:40;16.10;;;10.90;;
25980;SDS011;13772;52.996;9.124;2024-01-30T09:57:05;15.07;;;10.70;;
25980;SDS011;13772;52.996;9.124;2024-01-30T09:59:30;16.10;;;11.77;;
25980;SDS011;13772;52.996;9.124;2024-01-30T10:01:56;14.77;;;10.60;;
25980;SDS011;13772;52.996;9.124;2024-01-30T10:04:21;14.77;;;10.88;;
25980;SDS011;13772;52.996;9.124;2024-01-30T10:06:47;19.13;;;10.55;;
25980;SDS011;13772;52.996;9.124;2024-01-30T10:09:12;15.88;;;11.48;;
25980;SDS011;13772;52.996;9.124;2024-01-30T10:11:38;18.90;;;11.60;;
25980;SDS011;13772;52.996;9.124;2024-01-30T10:14:03;16.83;;;11.23;;
25980;SDS011;13772;52.996;9.124;2024-01-30T10:16:29;15.00;;;11.27;;
25980;SDS011;13772;52.996;9.124;2024-01-30T10:18:54;15.13;;;11.23;;
25980;SDS011;13772;52.996;9.124;2024-01-30T10:21:19;15.35;;;11.05;;
25980;SDS011;13772;52.996;9.124;2024-01-30T10:23:44;17.08;;;11.18;;
25980;SDS011;13772;52.996;9.124;2024-01-30T10:26:10;15.82;;;11.13;;
25980;SDS011;13772;52.996;9.124;2024-01-30T10:28:35;17.02;;;11.73;;
25980;SDS011;13772;52.996;9.124;2024-01-30T10:31:01;14.73;;;10.98;;
25980;SDS011;13772;52.996;9.124;2024-01-30T10:33:26;16.65;;;11.20;;
25980;SDS011;13772;52.996;9.124;2024-01-30T10:35:54;16.10;;;11.20;;
25980;SDS011;13772;52.996;9.124;2024-01-30T10:38:20;16.42;;;10.43;;
25980;SDS011;13772;52.996;9.124;2024-01-30T10:40:46;16.17;;;11.70;;
25980;SDS011;13772;52.996;9.124;2024-01-30T10:43:12;16.02;;;11.25;;
25980;SDS011;13772;52.996;9.124;2024-01-30T10:45:40;18.30;;;11.38;;
25980;SDS011;13772;52.996;9.124;2024-01-30T10:48:07;14.38;;;10.68;;
25980;SDS011;13772;52.996;9.124;2024-01-30T10:50:34;15.30;;;11.60;;
25980;SDS011;13772;52.996;9.124;2024-01-30T10:53:00;16.45;;;11.20;;
25980;SDS011;13772;52.996;9.124;2024-01-30T10:55:26;15.98;;;11.32;;
25980;SDS011;13772;52.996;9.124;2024-01-30T10:57:53;17.10;;;11.68;;
25980;SDS011;13772;52.996;9.124;2024-01-30T11:00:19;17.25;;;10.60;;
25980;SDS011;13772;52.996;9.124;2024-01-30T11:02:48;14.48;;;10.40;;
25980;SDS011;13772;52.996;9.124;2024-01-30T11:05:13;14.63;;;11.27;;
25980;SDS011;13772;52.996;9.124;2024-01-30T11:07:40;18.00;;;11.10;;
25980;SDS011;13772;52.996;9.124;2024-01-30T11:10:08;15.48;;;10.52;;
25980;SDS011;13772;52.996;9.124;2024-01-30T11:12:37;16.45;;;10.93;;
25980;SDS011;13772;52.996;9.124;2024-01-30T11:15:09;14.85;;;10.77;;
25980;SDS011;13772;52.996;9.124;2024-01-30T11:17:51;14.60;;;10.40;;
25980;SDS011;13772;52.996;9.124;2024-01-30T11:20:26;14.77;;;10.55;;
25980;SDS011;13772;52.996;9.124;2024-01-30T11:22:52;13.02;;;9.95;;
25980;SDS011;13772;52.996;9.124;2024-01-30T11:25:19;14.35;;;11.05;;
25980;SDS011;13772;52.996;9.124;2024-01-30T11:27:45;13.32;;;9.85;;
25980;SDS011;13772;52.996;9.124;2024-01-30T11:30:10;13.13;;;9.80;;
25980;SDS011;13772;52.996;9.124;2024-01-30T11:32:36;15.25;;;9.98;;
25980;SDS011;13772;52.996;9.124;2024-01-30T11:35:05;18.00;;;10.88;;
25980;SDS011;13772;52.996;9.124;2024-01-30T11:39:56;15.75;;;9.10;;
25980;SDS011;13772;52.996;9.124;2024-01-30T11:42:22;13.98;;;10.30;;
25980;SDS011;13772;52.996;9.124;2024-01-30T11:44:49;13.90;;;9.88;;
25980;SDS011;13772;52.996;9.124;2024-01-30T11:47:15;17.08;;;10.20;;
25980;SDS011;13772;52.996;9.124;2024-01-30T11:49:40;17.30;;;10.32;;
25980;SDS011;13772;52.996;9.124;2024-01-30T11:52:06;15.63;;;10.20;;
25980;SDS011;13772;52.996;9.124;2024-01-30T11:54:31;15.90;;;10.30;;
25980;SDS011;13772;52.996;9.124;2024-01-30T11:56:56;15.10;;;10.52;;
25980;SDS011;13772;52.996;9.124;2024-01-30T11:59:22;16.40;;;10.93;;
25980;SDS011;13772;52.996;9.124;2024-01-30T12:01:47;14.32;;;9.95;;
25980;SDS011;13772;52.996;9.124;2024-01-30T12:04:12;15.45;;;10.07;;
25980;SDS011;13772;52.996;9.124;2024-01-30T12:06:38;12.93;;;9.35;;
25980;SDS011;13772;52.996;9.124;2024-01-30T12:09:03;13.07;;;9.27;;
25980;SDS011;13772;52.996;9.124;2024-01-30T12:11:42;15.85;;;10.00;;
25980;SDS011;13772;52.996;9.124;2024-01-30T12:14:08;13.85;;;9.25;;
25980;SDS011;13772;52.996;9.124;2024-01-30T12:16:33;15.55;;;9.43;;
25980;SDS011;13772;52.996;9.124;2024-01-30T12:18:59;10.82;;;8.65;;
25980;SDS011;13772;52.996;9.124;2024-01-30T12:21:24;14.48;;;8.88;;
25980;SDS011;13772;52.996;9.124;2024-01-30T12:23:49;11.18;;;9.18;;
25980;SDS011;13772;52.996;9.124;2024-01-30T12:26:14;14.70;;;9.68;;
25980;SDS011;13772;52.996;9.124;2024-01-30T12:28:49;12.27;;;8.55;;
25980;SDS011;13772;52.996;9.124;2024-01-30T12:31:15;11.80;;;8.98;;
25980;SDS011;13772;52.996;9.124;2024-01-30T12:33:40;15.20;;;9.38;;
25980;SDS011;13772;52.996;9.124;2024-01-30T12:36:05;13.63;;;8.88;;
25980;SDS011;13772;52.996;9.124;2024-01-30T12:38:31;14.27;;;9.18;;
25980;SDS011;13772;52.996;9.124;2024-01-30T12:40:57;14.20;;;9.02;;
25980;SDS011;13772;52.996;9.124;2024-01-30T12:43:26;11.55;;;8.50;;
25980;SDS011;13772;52.996;9.124;2024-01-30T12:45:54;18.43;;;10.00;;
25980;SDS011;13772;52.996;9.124;2024-01-30T12:48:20;13.15;;;9.20;;
25980;SDS011;13772;52.996;9.124;2024-01-30T12:50:45;13.07;;;8.77;;
25980;SDS011;13772;52.996;9.124;2024-01-30T12:53:10;13.25;;;8.80;;
25980;SDS011;13772;52.996;9.124;2024-01-30T12:55:37;13.25;;;9.10;;
25980;SDS011;13772;52.996;9.124;2024-01-30T12:58:02;14.95;;;9.45;;
25980;SDS011;13772;52.996;9.124;2024-01-30T13:00:28;15.30;;;9.18;;
25980;SDS011;13772;52.996;9.124;2024-01-30T13:02:53;13.32;;;8.70;;
25980;SDS011;13772;52.996;9.124;2024-01-30T13:05:18;12.57;;;9.18;;
25980;SDS011;13772;52.996;9.124;2024-01-30T13:07:43;14.23;;;9.55;;
25980;SDS011;13772;52.996;9.124;2024-01-30T13:10:09;12.32;;;9.20;;
25980;SDS011;13772;52.996;9.124;2024-01-30T13:12:34;12.45;;;9.00;;
25980;SDS011;13772;52.996;9.124;2024-01-30T13:14:59;14.35;;;9.65;;
25980;SDS011;13772;52.996;9.124;2024-01-30T13:17:29;14.20;;;9.15;;
25980;SDS011;13772;52.996;9.124;2024-01-30T13:19:54;14.90;;;9.40;;
25980;SDS011;13772;52.996;9.124;2024-01-30T13:22:20;14.80;;;8.98;;
25980;SDS011;13772;52.996;9.124;2024-01-30T13:24:46;14.43;;;9.13;;
25980;SDS011;13772;52.996;9.124;2024-01-30T13:27:12;12.60;;;9.60;;
25980;SDS011;13772;52.996;9.124;2024-01-30T13:29:37;14.73;;;9.00;;
25980;SDS011;13772;52.996;9.124;2024-01-30T13:32:02;13.00;;;8.95;;
25980;SDS011;13772;52.996;9.124;2024-01-30T13:34:28;11.48;;;8.88;;
25980;SDS011;13772;52.996;9.124;2024-01-30T13:36:53;14.93;;;10.13;;
25980;SDS011;13772;52.996;9.124;2024-01-30T13:39:18;12.85;;;9.30;;
25980;SDS011;13772;52.996;9.124;2024-01-30T13:41:44;15.45;;;9.43;;
25980;SDS011;13772;52.996;9.124;2024-01-30T13:44:09;13.52;;;9.85;;
25980;SDS011;13772;52.996;9.124;2024-01-30T13:46:34;14.18;;;9.52;;
25980;SDS011;13772;52.996;9.124;2024-01-30T13:49:00;14.05;;;9.95;;
25980;SDS011;13772;52.996;9.124;2024-01-30T13:51:25;13.32;;;9.00;;
25980;SDS011;13772;52.996;9.124;2024-01-30T13:53:50;16.13;;;9.65;;
25980;SDS011;13772;52.996;9.124;2024-01-30T13:56:16;15.80;;;10.05;;
25980;SDS011;13772;52.996;9.124;2024-01-30T13:58:41;14.10;;;9.25;;
25980;SDS011;13772;52.996;9.124;2024-01-30T14:01:06;13.40;;;9.35;;
25980;SDS011;13772;52.996;9.124;2024-01-30T14:03:31;14.10;;;8.77;;
25980;SDS011;13772;52.996;9.124;2024-01-30T14:05:57;15.07;;;9.68;;
25980;SDS011;13772;52.996;9.124;2024-01-30T14:08:22;22.83;;;9.25;;
25980;SDS011;13772;52.996;9.124;2024-01-30T14:10:51;15.70;;;8.23;;
25980;SDS011;13772;52.996;9.124;2024-01-30T14:13:17;14.13;;;9.00;;
25980;SDS011;13772;52.996;9.124;2024-01-30T14:15:42;17.33;;;9.50;;
25980;SDS011;13772;52.996;9.124;2024-01-30T14:18:07;15.10;;;8.13;;
25980;SDS011;13772;52.996;9.124;2024-01-30T14:20:34;16.05;;;10.05;;
25980;SDS011;13772;52.996;9.124;2024-01-30T14:22:59;13.80;;;8.88;;
25980;SDS011;13772;52.996;9.124;2024-01-30T14:25:24;14.20;;;9.20;;
25980;SDS011;13772;52.996;9.124;2024-01-30T14:27:49;17.40;;;8.57;;
25980;SDS011;13772;52.996;9.124;2024-01-30T14:30:14;14.70;;;8.90;;
25980;SDS011;13772;52.996;9.124;2024-01-30T14:32:40;14.70;;;9.35;;
25980;SDS011;13772;52.996;9.124;2024-01-30T14:35:07;16.38;;;8.68;;
25980;SDS011;13772;52.996;9.124;2024-01-30T14:37:34;16.50;;;8.52;;
25980;SDS011;13772;52.996;9.124;2024-01-30T14:39:59;14.40;;;8.48;;
25980;SDS011;13772;52.996;9.124;2024-01-30T14:42:24;15.15;;;9.18;;
25980;SDS011;13772;52.996;9.124;2024-01-30T14:44:49;14.63;;;8.20;;
25980;SDS011;13772;52.996;9.124;2024-01-30T14:47:15;14.38;;;8.68;;
25980;SDS011;13772;52.996;9.124;2024-01-30T14:49:40;16.27;;;9.15;;
25980;SDS011;13772;52.996;9.124;2024-01-30T14:52:06;16.70;;;8.70;;
25980;SDS011;13772;52.996;9.124;2024-01-30T14:54:31;13.25;;;8.63;;
25980;SDS011;13772;52.996;9.124;2024-01-30T14:56:56;12.38;;;8.23;;
25980;SDS011;13772;52.996;9.124;2024-01-30T14:59:22;19.02;;;8.45;;
25980;SDS011;13772;52.996;9.124;2024-01-30T15:01:47;15.40;;;8.10;;
25980;SDS011;13772;52.996;9.124;2024-01-30T15:04:13;15.68;;;7.82;;
25980;SDS011;13772;52.996;9.124;2024-01-30T15:06:38;13.02;;;8.25;;
25980;SDS011;13772;52.996;9.124;2024-01-30T15:09:05;13.77;;;8.13;;
25980;SDS011;13772;52.996;9.124;2024-01-30T15:11:30;13.63;;;8.65;;
25980;SDS011;13772;52.996;9.124;2024-01-30T15:13:57;11.45;;;7.60;;
25980;SDS011;13772;52.996;9.124;2024-01-30T15:16:22;15.00;;;7.85;;
25980;SDS011;13772;52.996;9.124;2024-01-30T15:18:47;15.98;;;7.85;;
25980;SDS011;13772;52.996;9.124;2024-01-30T15:21:12;17.70;;;8.23;;
25980;SDS011;13772;52.996;9.124;2024-01-30T15:23:37;13.15;;;8.55;;
25980;SDS011;13772;52.996;9.124;2024-01-30T15:26:03;13.32;;;8.07;;
25980;SDS011;13772;52.996;9.124;2024-01-30T15:28:37;13.07;;;7.95;;
25980;SDS011;13772;52.996;9.124;2024-01-30T15:31:06;14.82;;;7.97;;
25980;SDS011;13772;52.996;9.124;2024-01-30T15:33:31;13.75;;;8.65;;
25980;SDS011;13772;52.996;9.124;2024-01-30T15:35:59;12.70;;;8.30;;
25980;SDS011;13772;52.996;9.124;2024-01-30T15:38:25;12.30;;;7.38;;
25980;SDS011;13772;52.996;9.124;2024-01-30T15:40:51;11.57;;;8.00;;
25980;SDS011;13772;52.996;9.124;2024-01-30T15:43:16;12.38;;;8.10;;
25980;SDS011;13772;52.996;9.124;2024-01-30T15:45:41;17.38;;;8.20;;
25980;SDS011;13772;52.996;9.124;2024-01-30T15:48:07;17.50;;;8.23;;
25980;SDS011;13772;52.996;9.124;2024-01-30T15:50:32;11.68;;;7.90;;
25980;SDS011;13772;52.996;9.124;2024-01-30T15:52:57;14.40;;;8.05;;
25980;SDS011;13772;52.996;9.124;2024-01-30T15:55:23;14.45;;;8.25;;
25980;SDS011;13772;52.996;9.124;2024-01-30T15:57:48;12.73;;;8.55;;
25980;SDS011;13772;52.996;9.124;2024-01-30T16:00:13;14.43;;;8.25;;
25980;SDS011;13772;52.996;9.124;2024-01-30T16:02:39;14.13;;;7.85;;
25980;SDS011;13772;52.996;9.124;2024-01-30T16:05:04;14.93;;;8.43;;
25980;SDS011;13772;52.996;9.124;2024-01-30T16:07:30;12.77;;;8.38;;
25980;SDS011;13772;52.996;9.124;2024-01-30T16:09:57;14.68;;;8.15;;
25980;SDS011;13772;52.996;9.124;2024-01-30T16:12:23;15.55;;;7.93;;
25980;SDS011;13772;52.996;9.124;2024-01-30T16:14:48;12.77;;;7.55;;
25980;SDS011;13772;52.996;9.124;2024-01-30T16:17:13;14.75;;;7.88;;
25980;SDS011;13772;52.996;9.124;2024-01-30T16:19:38;14.50;;;7.55;;
25980;SDS011;13772;52.996;9.124;2024-01-30T16:22:05;13.32;;;7.43;;
25980;SDS011;13772;52.996;9.124;2024-01-30T16:24:30;13.88;;;7.63;;
25980;SDS011;13772;52.996;9.124;2024-01-30T16:26:55;13.90;;;6.95;;
25980;SDS011;13772;52.996;9.124;2024-01-30T16:29:21;13.07;;;7.50;;
25980;SDS011;13772;52.996;9.124;2024-01-30T16:31:47;11.52;;;7.47;;
25980;SDS011;13772;52.996;9.124;2024-01-30T16:34:12;10.65;;;6.47;;
25980;SDS011;13772;52.996;9.124;2024-01-30T16:36:37;11.35;;;6.90;;
25980;SDS011;13772;52.996;9.124;2024-01-30T16:39:04;10.23;;;6.57;;
25980;SDS011;13772;52.996;9.124;2024-01-30T16:41:30;11.80;;;6.38;;
25980;SDS011;13772;52.996;9.124;2024-01-30T16:43:55;11.65;;;6.78;;
25980;SDS011;13772;52.996;9.124;2024-01-30T16:46:20;12.02;;;7.13;;
25980;SDS011;13772;52.996;9.124;2024-01-30T16:48:46;15.25;;;7.05;;
25980;SDS011;13772;52.996;9.124;2024-01-30T16:51:11;11.68;;;7.15;;
25980;SDS011;13772;52.996;9.124;2024-01-30T16:53:37;11.75;;;7.72;;
25980;SDS011;13772;52.996;9.124;2024-01-30T16:56:02;11.65;;;7.55;;
25980;SDS011;13772;52.996;9.124;2024-01-30T16:58:27;10.13;;;7.50;;
25980;SDS011;13772;52.996;9.124;2024-01-30T17:00:53;12.30;;;7.47;;
25980;SDS011;13772;52.996;9.124;2024-01-30T17:03:18;10.43;;;7.05;;
25980;SDS011;13772;52.996;9.124;2024-01-30T17:05:43;11.00;;;7.85;;
25980;SDS011;13772;52.996;9.124;2024-01-30T17:08:08;13.90;;;7.75;;
25980;SDS011;13772;52.996;9.124;2024-01-30T17:10:34;12.90;;;7.45;;
25980;SDS011;13772;52.996;9.124;2024-01-30T17:12:59;12.10;;;7.60;;
25980;SDS011;13772;52.996;9.124;2024-01-30T17:15:25;14.88;;;7.80;;
25980;SDS011;13772;52.996;9.124;2024-01-30T17:17:50;10.93;;;7.20;;
25980;SDS011;13772;52.996;9.124;2024-01-30T17:20:18;11.85;;;7.30;;
25980;SDS011;13772;52.996;9.124;2024-01-30T17:22:44;11.80;;;7.07;;
25980;SDS011;13772;52.996;9.124;2024-01-30T17:25:10;11.88;;;7.00;;
25980;SDS011;13772;52.996;9.124;2024-01-30T17:27:35;9.43;;;6.10;;
25980;SDS011;13772;52.996;9.124;2024-01-30T17:30:01;9.77;;;5.68;;
25980;SDS011;13772;52.996;9.124;2024-01-30T17:32:26;10.07;;;5.20;;
25980;SDS011;13772;52.996;9.124;2024-01-30T17:34:51;8.43;;;4.63;;
25980;SDS011;13772;52.996;9.124;2024-01-30T17:37:16;8.07;;;4.07;;
25980;SDS011;13772;52.996;9.124;2024-01-30T17:39:42;7.97;;;4.57;;
25980;SDS011;13772;52.996;9.124;2024-01-30T17:42:07;7.82;;;4.20;;
25980;SDS011;13772;52.996;9.124;2024-01-30T17:44:32;6.35;;;3.80;;
25980;SDS011;13772;52.996;9.124;2024-01-30T17:47:01;5.70;;;3.57;;
25980;SDS011;13772;52.996;9.124;2024-01-30T17:49:26;5.70;;;3.80;;
25980;SDS011;13772;52.996;9.124;2024-01-30T17:51:54;4.72;;;3.30;;
25980;SDS011;13772;52.996;9.124;2024-01-30T17:54:19;7.85;;;3.55;;
25980;SDS011;13772;52.996;9.124;2024-01-30T17:56:45;6.90;;;3.78;;
25980;SDS011;13772;52.996;9.124;2024-01-30T17:59:10;5.50;;;3.22;;
25980;SDS011;13772;52.996;9.124;2024-01-30T18:01:35;7.00;;;3.20;;
25980;SDS011;13772;52.996;9.124;2024-01-30T18:04:00;9.50;;;3.33;;
25980;SDS011;13772;52.996;9.124;2024-01-30T18:06:26;7.35;;;4.30;;
25980;SDS011;13772;52.996;9.124;2024-01-30T18:08:51;6.38;;;3.83;;
25980;SDS011;13772;52.996;9.124;2024-01-30T18:11:16;7.97;;;3.35;;
25980;SDS011;13772;52.996;9.124;2024-01-30T18:13:41;5.85;;;3.45;;
25980;SDS011;13772;52.996;9.124;2024-01-30T18:16:07;6.90;;;3.72;;
25980;SDS011;13772;52.996;9.124;2024-01-30T18:18:32;7.25;;;3.50;;
25980;SDS011;13772;52.996;9.124;2024-01-30T18:20:57;7.85;;;3.80;;
25980;SDS011;13772;52.996;9.124;2024-01-30T18:23:22;7.97;;;2.95;;
25980;SDS011;13772;52.996;9.124;2024-01-30T18:25:47;7.35;;;2.75;;
25980;SDS011;13772;52.996;9.124;2024-01-30T18:28:13;4.75;;;2.95;;
25980;SDS011;13772;52.996;9.124;2024-01-30T18:30:38;4.80;;;2.45;;
25980;SDS011;13772;52.996;9.124;2024-01-30T18:33:04;5.18;;;2.70;;
25980;SDS011;13772;52.996;9.124;2024-01-30T18:35:30;7.05;;;2.55;;
25980;SDS011;13772;52.996;9.124;2024-01-30T18:37:55;6.10;;;2.28;;
25980;SDS011;13772;52.996;9.124;2024-01-30T18:40:20;5.95;;;2.55;;
25980;SDS011;13772;52.996;9.124;2024-01-30T18:42:45;5.75;;;1.85;;
25980;SDS011;13772;52.996;9.124;2024-01-30T18:45:11;4.97;;;2.47;;
25980;SDS011;13772;52.996;9.124;2024-01-30T18:47:36;5.68;;;2.20;;
25980;SDS011;13772;52.996;9.124;2024-01-30T18:50:01;6.63;;;3.08;;
25980;SDS011;13772;52.996;9.124;2024-01-30T18:52:26;3.28;;;2.13;;
25980;SDS011;13772;52.996;9.124;2024-01-30T18:54:51;5.47;;;3.17;;
25980;SDS011;13772;52.996;9.124;2024-01-30T18:57:17;4.55;;;2.35;;
25980;SDS011;13772;52.996;9.124;2024-01-30T18:59:42;4.60;;;2.67;;
25980;SDS011;13772;52.996;9.124;2024-01-30T19:02:07;4.22;;;2.40;;
25980;SDS011;13772;52.996;9.124;2024-01-30T19:04:32;5.05;;;2.70;;
25980;SDS011;13772;52.996;9.124;2024-01-30T19:06:57;3.50;;;2.40;;
25980;SDS011;13772;52.996;9.124;2024-01-30T19:09:23;5.95;;;2.65;;
25980;SDS011;13772;52.996;9.124;2024-01-30T19:11:50;6.57;;;2.50;;
25980;SDS011;13772;52.996;9.124;2024-01-30T19:14:16;4.07;;;2.63;;
25980;SDS011;13772;52.996;9.124;2024-01-30T19:16:41;4.50;;;2.60;;
25980;SDS011;13772;52.996;9.124;2024-01-30T19:19:06;4.13;;;2.58;;
25980;SDS011;13772;52.996;9.124;2024-01-30T19:21:32;5.00;;;2.58;;
25980;SDS011;13772;52.996;9.124;2024-01-30T19:23:57;4.07;;;2.60;;
25980;SDS011;13772;52.996;9.124;2024-01-30T19:26:24;6.38;;;3.60;;
25980;SDS011;13772;52.996;9.124;2024-01-30T19:28:49;4.25;;;2.88;;
25980;SDS011;13772;52.996;9.124;2024-01-30T19:31:15;6.82;;;3.38;;
25980;SDS011;13772;52.996;9.124;2024-01-30T19:33:40;4.78;;;3.35;;
25980;SDS011;13772;52.996;9.124;2024-01-30T19:36:05;5.20;;;2.92;;
25980;SDS011;13772;52.996;9.124;2024-01-30T19:38:31;5.70;;;3.75;;
25980;SDS011;13772;52.996;9.124;2024-01-30T19:40:56;5.65;;;3.22;;
25980;SDS011;13772;52.996;9.124;2024-01-30T19:43:22;7.88;;;3.78;;
25980;SDS011;13772;52.996;9.124;2024-01-30T19:45:49;5.50;;;3.75;;
25980;SDS011;13772;52.996;9.124;2024-01-30T19:48:14;6.15;;;3.95;;
25980;SDS011;13772;52.996;9.124;2024-01-30T19:50:40;5.65;;;4.07;;
25980;SDS011;13772;52.996;9.124;2024-01-30T19:53:05;5.30;;;3.75;;
25980;SDS011;13772;52.996;9.124;2024-01-30T19:55:30;6.57;;;4.07;;
25980;SDS011;13772;52.996;9.124;2024-01-30T19:57:56;6.47;;;4.32;;
25980;SDS011;13772;52.996;9.124;2024-01-30T20:00:21;6.10;;;4.40;;
25980;SDS011;13772;52.996;9.124;2024-01-30T20:02:47;6.22;;;4.43;;
25980;SDS011;13772;52.996;9.124;2024-01-30T20:05:12;6.95;;;4.80;;
25980;SDS011;13772;52.996;9.124;2024-01-30T20:07:38;7.78;;;5.15;;
25980;SDS011;13772;52.996;9.124;2024-01-30T20:10:03;9.45;;;5.43;;
25980;SDS011;13772;52.996;9.124;2024-01-30T20:12:28;7.88;;;5.60;;
25980;SDS011;13772;52.996;9.124;2024-01-30T20:14:53;7.95;;;5.30;;
25980;SDS011;13772;52.996;9.124;2024-01-30T20:17:19;12.27;;;6.72;;
25980;SDS011;13772;52.996;9.124;2024-01-30T20:19:44;10.20;;;6.47;;
25980;SDS011;13772;52.996;9.124;2024-01-30T20:22:10;12.40;;;7.13;;
25980;SDS011;13772;52.996;9.124;2024-01-30T20:24:35;11.05;;;6.88;;
25980;SDS011;13772;52.996;9.124;2024-01-30T20:27:00;12.20;;;7.25;;
25980;SDS011;13772;52.996;9.124;2024-01-30T20:29:26;14.18;;;8.48;;
25980;SDS011;13772;52.996;9.124;2024-01-30T20:31:51;12.07;;;7.25;;
25980;SDS011;13772;52.996;9.124;2024-01-30T20:34:16;11.45;;;7.85;;
25980;SDS011;13772;52.996;9.124;2024-01-30T20:36:41;15.45;;;8.05;;
25980;SDS011;13772;52.996;9.124;2024-01-30T20:39:09;14.10;;;8.70;;
25980;SDS011;13772;52.996;9.124;2024-01-30T20:41:37;12.18;;;8.38;;
25980;SDS011;13772;52.996;9.124;2024-01-30T20:44:03;14.48;;;8.95;;
25980;SDS011;13772;52.996;9.124;2024-01-30T20:46:28;11.98;;;7.80;;
25980;SDS011;13772;52.996;9.124;2024-01-30T20:48:53;12.80;;;8.38;;
25980;SDS011;13772;52.996;9.124;2024-01-30T20:51:19;11.38;;;8.02;;
25980;SDS011;13772;52.996;9.124;2024-01-30T20:53:44;11.05;;;7.55;;
25980;SDS011;13772;52.996;9.124;2024-01-30T20:56:10;8.13;;;6.25;;
25980;SDS011;13772;52.996;9.124;2024-01-30T20:58:35;8.45;;;6.35;;
25980;SDS011;13772;52.996;9.124;2024-01-30T21:01:00;7.35;;;5.25;;
25980;SDS011;13772;52.996;9.124;2024-01-30T21:03:25;7.97;;;6.03;;
25980;SDS011;13772;52.996;9.124;2024-01-30T21:05:54;9.55;;;5.47;;
25980;SDS011;13772;52.996;9.124;2024-01-30T21:08:19;7.55;;;4.22;;
25980;SDS011;13772;52.996;9.124;2024-01-30T21:10:44;6.63;;;4.47;;
25980;SDS011;13772;52.996;9.124;2024-01-30T21:13:09;7.90;;;4.93;;
25980;SDS011;13772;52.996;9.124;2024-01-30T21:15:34;5.82;;;4.30;;
25980;SDS011;13772;52.996;9.124;2024-01-30T21:18:00;7.20;;;3.72;;
25980;SDS011;13772;52.996;9.124;2024-01-30T21:20:25;4.97;;;3.85;;
25980;SDS011;13772;52.996;9.124;2024-01-30T21:22:50;5.68;;;3.38;;
25980;SDS011;13772;52.996;9.124;2024-01-30T21:25:15;4.43;;;3.30;;
25980;SDS011;13772;52.996;9.124;2024-01-30T21:27:41;6.55;;;4.05;;
25980;SDS011;13772;52.996;9.124;2024-01-30T21:30:07;5.38;;;3.63;;
25980;SDS011;13772;52.996;9.124;2024-01-30T21:32:32;4.40;;;3.35;;
25980;SDS011;13772;52.996;9.124;2024-01-30T21:34:57;4.72;;;3.83;;
25980;SDS011;13772;52.996;9.124;2024-01-30T21:37:23;3.90;;;2.90;;
25980;SDS011;13772;52.996;9.124;2024-01-30T21:39:48;4.53;;;3.38;;
25980;SDS011;13772;52.996;9.124;2024-01-30T21:42:13;3.53;;;2.42;;
25980;SDS011;13772;52.996;9.124;2024-01-30T21:44:39;5.55;;;2.30;;
25980;SDS011;13772;52.996;9.124;2024-01-30T21:47:04;3.28;;;1.98;;
25980;SDS011;13772;52.996;9.124;2024-01-30T21:49:30;3.17;;;2.00;;
25980;SDS011;13772;52.996;9.124;2024-01-30T21:51:55;5.28;;;2.03;;
25980;SDS011;13772;52.996;9.124;2024-01-30T21:54:20;3.35;;;1.95;;
25980;SDS011;13772;52.996;9.124;2024-01-30T21:56:45;5.88;;;2.00;;
25980;SDS011;13772;52.996;9.124;2024-01-30T21:59:11;3.28;;;1.75;;
25980;SDS011;13772;52.996;9.124;2024-01-30T22:01:36;2.63;;;1.52;;
25980;SDS011;13772;52.996;9.124;2024-01-30T22:04:01;2.33;;;1.60;;
25980;SDS011;13772;52.996;9.124;2024-01-30T22:06:27;4.25;;;1.73;;
25980;SDS011;13772;52.996;9.124;2024-01-30T22:08:52;4.03;;;1.75;;
25980;SDS011;13772;52.996;9.124;2024-01-30T22:11:17;5.57;;;2.05;;
25980;SDS011;13772;52.996;9.124;2024-01-30T22:13:42;6.38;;;1.50;;
25980;SDS011;13772;52.996;9.124;2024-01-30T22:16:08;5.85;;;1.88;;
25980;SDS011;13772;52.996;9.124;2024-01-30T22:18:33;2.78;;;1.38;;
25980;SDS011;13772;52.996;9.124;2024-01-30T22:20:58;3.97;;;1.73;;
25980;SDS011;13772;52.996;9.124;2024-01-30T22:23:23;4.72;;;1.80;;
25980;SDS011;13772;52.996;9.124;2024-01-30T22:25:48;2.58;;;1.38;;
25980;SDS011;13772;52.996;9.124;2024-01-30T22:28:14;3.42;;;1.60;;
25980;SDS011;13772;52.996;9.124;2024-01-30T22:30:40;2.75;;;1.52;;
25980;SDS011;13772;52.996;9.124;2024-01-30T22:33:05;5.43;;;1.83;;
25980;SDS011;13772;52.996;9.124;2024-01-30T22:35:32;6.80;;;2.00;;
25980;SDS011;13772;52.996;9.124;2024-01-30T22:37:57;7.30;;;1.52;;
